createdAt,value
2023-02-15T00:01:10.236Z,98.00
2023-02-15T00:04:14.956Z,92.90
2023-02-15T00:07:18.019Z,86.70
2023-02-15T00:10:19.776Z,88.30
2023-02-15T00:13:21.413Z,86.50
2023-02-15T00:19:24.909Z,88.10
2023-02-15T00:25:28.201Z,76.90
2023-02-15T00:28:31.030Z,60.70
2023-02-15T00:31:33.595Z,56.60
2023-02-15T00:34:35.279Z,72.70
2023-02-15T00:40:38.494Z,68.20
2023-02-15T00:43:43.140Z,73.40
2023-02-15T00:46:45.065Z,70.50
2023-02-15T00:49:46.681Z,73.30
2023-02-15T00:52:48.246Z,74.80
2023-02-15T00:55:50.379Z,67.10
2023-02-15T01:01:53.584Z,62.70
2023-02-15T01:07:57.770Z,63.10
2023-02-15T01:11:07.250Z,67.60
2023-02-15T01:14:08.875Z,65.70
2023-02-15T01:20:12.951Z,53.10
2023-02-15T01:23:14.865Z,44.10
2023-02-15T01:26:17.840Z,44.70
2023-02-15T01:29:19.576Z,46.00
2023-02-15T01:35:22.868Z,53.10
2023-02-15T01:41:26.124Z,47.40
2023-02-15T01:44:52.860Z,50.30
2023-02-15T01:48:19.260Z,51.10
2023-02-15T01:51:24.494Z,49.20
2023-02-15T01:54:30.894Z,50.70
2023-02-15T01:57:32.636Z,48.60
2023-02-15T02:06:45.722Z,46.00
2023-02-15T02:09:48.565Z,44.10
2023-02-15T02:12:52.750Z,46.80
2023-02-15T02:16:23.939Z,50.60
2023-02-15T02:19:54.305Z,45.70
2023-02-15T02:22:59.008Z,48.00
2023-02-15T02:26:37.031Z,49.40
2023-02-15T02:30:07.535Z,55.30
2023-02-15T02:33:18.781Z,49.20
2023-02-15T02:36:50.880Z,48.00
2023-02-15T02:40:37.769Z,51.10
2023-02-15T02:43:48.967Z,55.10
2023-02-15T02:47:19.455Z,50.90
2023-02-15T02:50:29.878Z,47.90
2023-02-15T02:53:32.411Z,56.90
2023-02-15T02:56:42.911Z,52.50
2023-02-15T02:59:45.957Z,53.10
2023-02-15T03:02:50.730Z,51.10
2023-02-15T03:05:55.614Z,52.50
2023-02-15T03:09:09.586Z,48.00
2023-02-15T03:12:23.401Z,51.10
2023-02-15T03:15:31.664Z,52.40
2023-02-15T03:18:37.661Z,53.70
2023-02-15T03:21:49.643Z,53.50
2023-02-15T03:25:06.421Z,51.50
2023-02-15T03:28:10.875Z,54.30
2023-02-15T03:31:14.386Z,51.60
2023-02-15T03:34:16.762Z,48.20
2023-02-15T03:37:44.135Z,48.00
2023-02-15T03:40:46.817Z,51.90
2023-02-15T03:44:00.684Z,51.70
2023-02-15T03:47:09.630Z,55.40
2023-02-15T03:50:16.969Z,58.80
2023-02-15T03:53:22.349Z,56.90
2023-02-15T03:56:27.521Z,52.40
2023-02-15T03:59:29.123Z,50.60
2023-02-15T04:02:39.664Z,50.00
2023-02-15T04:05:42.675Z,51.40
2023-02-15T04:08:44.384Z,48.70
2023-02-15T04:14:47.594Z,48.00
2023-02-15T04:17:49.212Z,48.40
2023-02-15T04:20:51.434Z,48.10
2023-02-15T04:23:52.957Z,57.80
2023-02-15T04:26:55.212Z,52.40
2023-02-15T04:29:56.788Z,59.40
2023-02-15T04:32:58.435Z,55.50
2023-02-15T04:36:00.791Z,53.00
2023-02-15T04:39:02.698Z,52.00
2023-02-15T04:42:04.456Z,50.40
2023-02-15T04:48:07.968Z,53.70
2023-02-15T04:51:09.656Z,53.10
2023-02-15T04:57:13.616Z,50.30
2023-02-15T05:00:15.613Z,48.20
2023-02-15T05:03:19.549Z,49.30
2023-02-15T05:06:21.548Z,46.00
2023-02-15T05:09:23.252Z,44.40
2023-02-15T05:15:26.691Z,45.60
2023-02-15T05:18:28.368Z,50.70
2023-02-15T05:24:31.746Z,45.60
2023-02-15T05:27:33.359Z,46.50
2023-02-15T05:30:35.143Z,55.60
2023-02-15T05:33:37.058Z,48.60
2023-02-15T05:39:40.314Z,53.70
2023-02-15T05:45:51.729Z,51.10
2023-02-15T05:48:53.362Z,54.70
2023-02-15T05:51:54.982Z,53.90
2023-02-15T05:54:56.516Z,52.90
2023-02-15T05:57:58.260Z,48.90
2023-02-15T06:04:01.471Z,52.70
2023-02-15T06:07:03.139Z,47.00
2023-02-15T06:10:05.358Z,50.40
2023-02-15T06:13:07.464Z,53.00
2023-02-15T06:16:09.064Z,54.60
2023-02-15T06:22:12.148Z,47.50
2023-02-15T06:25:15.038Z,49.00
2023-02-15T06:28:16.739Z,47.90
2023-02-15T06:31:18.419Z,51.80
2023-02-15T06:37:21.903Z,45.30
2023-02-15T06:40:23.601Z,46.70
2023-02-15T06:46:26.970Z,45.90
2023-02-15T06:52:30.301Z,44.40
2023-02-15T06:58:34.877Z,51.40
2023-02-15T07:01:36.556Z,47.80
2023-02-15T07:07:39.949Z,51.10
2023-02-15T07:10:45.226Z,49.00
2023-02-15T07:13:47.843Z,48.50
2023-02-15T07:16:49.423Z,45.50
2023-02-15T07:22:52.736Z,47.40
2023-02-15T07:26:01.531Z,46.50
2023-02-15T07:29:03.519Z,47.10
2023-02-15T07:35:06.681Z,48.90
2023-02-15T07:38:08.271Z,48.30
2023-02-15T07:41:12.448Z,47.80
2023-02-15T07:44:15.377Z,45.40
2023-02-15T07:47:17.500Z,48.10
2023-02-15T07:50:19.207Z,48.30
2023-02-15T07:56:22.370Z,48.40
2023-02-15T07:59:24.069Z,49.80
2023-02-15T08:05:29.708Z,48.80
2023-02-15T08:08:31.352Z,45.20
2023-02-15T08:14:35.865Z,45.80
2023-02-15T08:17:38.057Z,47.40
2023-02-15T08:20:39.829Z,45.90
2023-02-15T08:26:43.898Z,43.50
2023-02-15T08:29:45.390Z,43.60
2023-02-15T08:32:47.174Z,43.90
2023-02-15T08:38:50.265Z,42.20
2023-02-15T08:41:52.112Z,44.00
2023-02-15T08:44:53.969Z,43.60
2023-02-15T08:47:55.713Z,43.00
2023-02-15T08:54:01.824Z,48.90
2023-02-15T08:57:03.595Z,43.30
2023-02-15T09:00:05.764Z,42.20
2023-02-15T09:03:07.628Z,52.30
2023-02-15T09:09:12.000Z,42.90
2023-02-15T09:12:13.758Z,46.10
2023-02-15T09:15:15.652Z,45.90
2023-02-15T09:18:17.155Z,46.00
2023-02-15T09:24:21.550Z,41.20
2023-02-15T09:27:23.256Z,44.20
2023-02-15T09:30:24.885Z,36.80
2023-02-15T09:33:26.716Z,36.00
2023-02-15T09:36:37.832Z,37.40
2023-02-15T09:39:42.484Z,33.70
2023-02-15T09:42:53.323Z,33.20
2023-02-15T09:46:18.837Z,37.40
2023-02-15T09:50:04.282Z,33.90
2023-02-15T09:53:37.178Z,33.30
2023-02-15T09:56:46.573Z,31.20
2023-02-15T10:00:07.191Z,45.80
2023-02-15T10:03:14.316Z,33.60
2023-02-15T10:06:30.983Z,32.30
2023-02-15T10:09:32.726Z,33.20
2023-02-15T10:12:42.311Z,30.50
2023-02-15T10:15:50.016Z,31.80
2023-02-15T10:19:28.622Z,32.40
2023-02-15T10:22:42.721Z,29.70
2023-02-15T10:25:51.339Z,30.50
2023-02-15T10:29:10.427Z,34.00
2023-02-15T10:32:22.119Z,32.40
2023-02-15T10:35:55.092Z,31.30
2023-02-15T10:39:20.350Z,34.30
2023-02-15T10:42:31.811Z,33.70
2023-02-15T10:45:36.350Z,30.20
2023-02-15T10:49:00.889Z,31.60
2023-02-15T10:52:24.610Z,33.50
2023-02-15T10:55:35.403Z,30.60
2023-02-15T10:59:07.703Z,31.80
2023-02-15T11:02:48.961Z,33.50
2023-02-15T11:06:06.815Z,33.10
2023-02-15T11:09:13.795Z,34.70
2023-02-15T11:12:20.292Z,31.40
2023-02-15T11:15:50.552Z,32.50
2023-02-15T11:19:02.006Z,34.30
2023-02-15T11:22:05.744Z,33.50
2023-02-15T11:25:33.697Z,31.90
2023-02-15T11:28:40.247Z,35.10
2023-02-15T11:31:47.864Z,30.90
2023-02-15T11:35:12.419Z,32.40
2023-02-15T11:38:18.860Z,30.80
2023-02-15T11:41:28.513Z,30.40
2023-02-15T11:44:36.079Z,37.70
2023-02-15T11:47:37.681Z,40.30
2023-02-15T11:50:40.156Z,34.50
2023-02-15T11:53:41.815Z,33.70
2023-02-15T11:56:43.445Z,42.80
2023-02-15T11:59:52.542Z,37.60
2023-02-15T12:02:55.880Z,35.60
2023-02-15T12:06:02.686Z,32.10
2023-02-15T12:09:10.108Z,38.70
2023-02-15T12:12:27.670Z,36.70
2023-02-15T12:15:32.934Z,40.80
2023-02-15T12:18:40.118Z,41.50
2023-02-15T12:21:42.637Z,40.40
2023-02-15T12:24:48.358Z,43.90
2023-02-15T12:27:50.729Z,40.00
2023-02-15T12:30:54.682Z,42.20
2023-02-15T12:33:58.006Z,41.20
2023-02-15T12:37:03.162Z,43.40
2023-02-15T12:40:24.397Z,43.00
2023-02-15T12:43:30.949Z,40.40
2023-02-15T12:46:37.889Z,53.10
2023-02-15T12:49:40.054Z,43.90
2023-02-15T12:52:41.755Z,43.50
2023-02-15T12:55:55.387Z,43.20
2023-02-15T12:59:06.391Z,46.70
2023-02-15T13:02:17.626Z,38.80
2023-02-15T13:05:35.253Z,39.70
2023-02-15T13:08:46.307Z,38.70
2023-02-15T13:11:48.033Z,51.00
2023-02-15T13:14:51.497Z,43.60
2023-02-15T13:17:53.359Z,43.80
2023-02-15T13:20:54.992Z,40.20
2023-02-15T13:24:01.498Z,41.70
2023-02-15T13:27:15.068Z,42.00
2023-02-15T13:30:27.659Z,39.10
2023-02-15T13:33:36.194Z,40.40
2023-02-15T13:36:37.747Z,43.00
2023-02-15T13:39:46.904Z,39.90
2023-02-15T13:43:11.470Z,39.60
2023-02-15T13:46:22.723Z,38.70
2023-02-15T13:49:33.284Z,42.10
2023-02-15T13:52:43.280Z,40.60
2023-02-15T13:56:15.146Z,39.10
2023-02-15T13:59:18.997Z,43.00
2023-02-15T14:02:50.052Z,40.00
2023-02-15T14:06:10.754Z,37.20
2023-02-15T14:09:21.639Z,40.50
2023-02-15T14:12:41.657Z,45.20
2023-02-15T14:15:54.283Z,40.20
2023-02-15T14:19:04.700Z,42.60
2023-02-15T14:22:18.518Z,43.90
2023-02-15T14:25:36.226Z,37.50
2023-02-15T14:28:45.088Z,42.90
2023-02-15T14:31:50.051Z,38.10
2023-02-15T14:34:54.658Z,38.50
2023-02-15T14:38:02.714Z,41.10
2023-02-15T14:41:33.670Z,46.10
2023-02-15T14:44:40.987Z,44.70
2023-02-15T14:47:47.436Z,44.80
2023-02-15T14:50:49.280Z,45.70
2023-02-15T14:53:50.917Z,44.30
2023-02-15T14:57:01.604Z,48.40
2023-02-15T15:00:04.976Z,47.30
2023-02-15T15:03:21.318Z,48.10
2023-02-15T15:06:30.842Z,50.00
2023-02-15T15:09:35.130Z,53.30
2023-02-15T15:12:39.263Z,52.90
2023-02-15T15:15:47.894Z,55.20
2023-02-15T15:18:49.826Z,60.80
2023-02-15T15:21:51.754Z,57.80
2023-02-15T15:25:05.703Z,52.30
2023-02-15T15:28:07.554Z,58.10
2023-02-15T15:31:15.358Z,53.80
2023-02-15T15:34:29.502Z,54.50
2023-02-15T15:37:53.095Z,59.00
2023-02-15T15:41:19.916Z,69.40
2023-02-15T15:44:55.857Z,65.60
2023-02-15T15:48:26.784Z,62.40
2023-02-15T15:51:32.262Z,60.40
2023-02-15T15:54:33.921Z,64.40
2023-02-15T15:57:41.094Z,63.90
2023-02-15T16:00:49.641Z,64.60
2023-02-15T16:03:53.220Z,77.20
2023-02-15T16:06:54.945Z,81.30
2023-02-15T16:13:02.046Z,61.70
2023-02-15T16:16:04.269Z,62.10
2023-02-15T16:19:06.434Z,62.00
2023-02-15T16:25:31.671Z,65.90
2023-02-15T16:28:33.508Z,69.90
2023-02-15T16:34:36.935Z,70.60
2023-02-15T16:40:47.882Z,70.20
2023-02-15T16:43:50.839Z,74.00
2023-02-15T16:46:53.380Z,78.10
2023-02-15T16:49:57.439Z,74.80
2023-02-15T16:52:59.370Z,84.90
2023-02-15T16:56:03.903Z,90.60
2023-02-15T16:59:05.533Z,94.20
2023-02-15T17:02:11.616Z,100.10
2023-02-15T17:05:13.108Z,103.80
2023-02-15T17:08:20.716Z,97.90
2023-02-15T17:11:33.959Z,94.00
2023-02-15T17:14:38.998Z,94.40
2023-02-15T17:17:40.548Z,98.70
2023-02-15T17:20:43.456Z,94.00
2023-02-15T17:23:47.610Z,95.40
2023-02-15T17:26:57.001Z,92.30
2023-02-15T17:30:04.583Z,94.40
2023-02-15T17:33:40.403Z,90.80
2023-02-15T17:36:58.415Z,95.80
2023-02-15T17:40:02.027Z,94.60
2023-02-15T17:43:04.134Z,108.10
2023-02-15T17:46:06.091Z,110.70
2023-02-15T17:52:14.183Z,112.80
2023-02-15T17:55:18.791Z,117.60
2023-02-15T17:58:21.192Z,137.40
2023-02-15T18:01:22.997Z,153.50
2023-02-15T18:07:26.357Z,178.20
2023-02-15T18:10:29.201Z,167.20
2023-02-15T18:16:38.209Z,172.90
2023-02-15T18:19:41.563Z,155.70
2023-02-15T18:22:43.203Z,153.80
2023-02-15T18:25:44.797Z,111.80
2023-02-15T18:28:46.408Z,92.70
2023-02-15T18:31:51.790Z,103.90
2023-02-15T18:34:55.945Z,119.20
2023-02-15T18:37:58.764Z,130.30
2023-02-15T18:41:02.556Z,110.80
2023-02-15T18:44:12.300Z,98.00
2023-02-15T18:47:14.068Z,101.20
2023-02-15T18:50:17.809Z,94.90
2023-02-15T18:53:20.965Z,82.20
2023-02-15T18:56:23.049Z,82.60
2023-02-15T18:59:26.251Z,79.10
2023-02-15T19:02:28.012Z,82.40
2023-02-15T19:08:31.767Z,69.50
2023-02-15T19:14:35.039Z,70.40
2023-02-15T19:17:36.757Z,65.40
2023-02-15T19:23:40.798Z,107.00
2023-02-15T19:26:46.001Z,111.60
2023-02-15T19:29:48.453Z,96.60
2023-02-15T19:32:50.191Z,115.40
2023-02-15T19:35:53.722Z,137.40
2023-02-15T19:38:55.563Z,127.60
2023-02-15T19:41:57.094Z,109.10
2023-02-15T19:44:58.630Z,103.10
2023-02-15T19:48:01.250Z,100.80
2023-02-15T19:51:04.198Z,105.60
2023-02-15T19:54:24.945Z,106.70
2023-02-15T19:57:26.529Z,101.50
2023-02-15T20:00:31.371Z,115.90
2023-02-15T20:03:33.100Z,127.50
2023-02-15T20:09:36.271Z,108.10
2023-02-15T20:12:37.901Z,106.90
2023-02-15T20:15:39.512Z,92.90
2023-02-15T20:18:41.255Z,99.40
2023-02-15T20:21:45.049Z,85.80
2023-02-15T20:24:46.640Z,79.80
2023-02-15T20:27:48.721Z,198.20
2023-02-15T20:30:51.120Z,123.10
2023-02-15T20:33:52.721Z,125.30
2023-02-15T20:36:54.473Z,126.30
2023-02-15T20:39:56.217Z,126.90
2023-02-15T20:45:59.617Z,117.50
2023-02-15T20:52:03.995Z,106.40
2023-02-15T20:55:22.114Z,104.60
2023-02-15T20:58:26.343Z,105.30
2023-02-15T21:01:27.970Z,123.90
2023-02-15T21:04:31.651Z,135.30
2023-02-15T21:07:36.520Z,147.70
2023-02-15T21:10:38.668Z,135.60
2023-02-15T21:13:40.389Z,142.40
2023-02-15T21:19:43.698Z,108.10
2023-02-15T21:25:47.225Z,104.10
2023-02-15T21:28:49.691Z,119.00
2023-02-15T21:31:51.652Z,115.10
2023-02-15T21:34:53.331Z,112.50
2023-02-15T21:37:55.493Z,112.70
2023-02-15T21:40:57.600Z,106.60
2023-02-15T21:43:59.148Z,115.10
2023-02-15T21:47:00.859Z,115.20
2023-02-15T21:50:02.644Z,109.80
2023-02-15T21:53:05.308Z,114.90
2023-02-15T21:56:10.983Z,117.60
2023-02-15T21:59:13.693Z,125.90
2023-02-15T22:02:42.685Z,138.30
2023-02-15T22:05:44.295Z,118.10
2023-02-15T22:08:45.968Z,117.80
2023-02-15T22:11:49.090Z,117.40
2023-02-15T22:14:52.931Z,122.00
2023-02-15T22:17:54.547Z,113.60
2023-02-15T22:20:56.493Z,111.80
2023-02-15T22:23:57.976Z,115.10
2023-02-15T22:27:00.284Z,134.10
2023-02-15T22:30:02.077Z,115.00
2023-02-15T22:36:05.700Z,120.10
2023-02-15T22:39:07.327Z,120.60
2023-02-15T22:42:24.161Z,110.00
2023-02-15T22:45:26.261Z,109.00
2023-02-15T22:48:27.913Z,122.00
2023-02-15T22:51:29.958Z,107.80
2023-02-15T22:54:31.488Z,112.70
2023-02-15T22:57:33.117Z,119.30
2023-02-15T23:00:39.834Z,121.10
2023-02-15T23:03:41.499Z,115.90
2023-02-15T23:09:45.479Z,108.60
2023-02-15T23:12:59.104Z,96.80
2023-02-15T23:16:03.336Z,111.70
2023-02-15T23:19:06.177Z,102.20
2023-02-15T23:22:14.324Z,116.90
2023-02-15T23:25:16.012Z,128.90
2023-02-15T23:28:33.230Z,112.30
2023-02-15T23:31:37.083Z,137.90
2023-02-15T23:34:39.336Z,127.90
2023-02-15T23:37:41.022Z,138.00
2023-02-15T23:40:42.688Z,135.70
2023-02-15T23:43:47.972Z,110.70
2023-02-15T23:46:50.080Z,112.70
2023-02-15T23:49:51.659Z,126.40
2023-02-15T23:52:54.222Z,121.90
2023-02-15T23:55:56.363Z,113.30
2023-02-15T23:58:58.063Z,109.50
